createdAt,value
2018-01-11T00:01:23.665Z,26.30
2018-01-11T00:03:55.076Z,23.23
2018-01-11T00:06:26.600Z,24.03
2018-01-11T00:08:59.471Z,26.20
2018-01-11T00:11:32.261Z,24.93
2018-01-11T00:14:05.370Z,27.93
2018-01-11T00:16:39.660Z,24.53
2018-01-11T00:19:10.669Z,24.70
2018-01-11T00:21:41.757Z,27.20
2018-01-11T00:24:14.082Z,26.87
2018-01-11T00:26:46.820Z,27.47
2018-01-11T00:29:18.142Z,27.97
2018-01-11T00:31:50.881Z,27.53
2018-01-11T00:34:23.538Z,25.40
2018-01-11T00:36:55.206Z,27.10
2018-01-11T00:39:32.785Z,27.47
2018-01-11T00:42:06.012Z,27.20
2018-01-11T00:44:37.879Z,27.30
2018-01-11T00:47:10.088Z,26.90
2018-01-11T00:49:41.852Z,26.63
2018-01-11T00:52:14.147Z,26.73
2018-01-11T00:54:45.211Z,26.70
2018-01-11T00:57:16.893Z,27.10
2018-01-11T00:59:49.816Z,26.87
2018-01-11T01:02:21.324Z,27.57
2018-01-11T01:04:53.179Z,25.87
2018-01-11T01:07:24.987Z,26.50
2018-01-11T01:09:56.962Z,27.17
2018-01-11T01:12:28.144Z,26.37
2018-01-11T01:14:59.421Z,25.73
2018-01-11T01:17:30.659Z,26.47
2018-01-11T01:20:01.774Z,24.80
2018-01-11T01:22:33.238Z,26.47
2018-01-11T01:25:04.359Z,26.33
2018-01-11T01:27:36.242Z,25.33
2018-01-11T01:30:08.712Z,24.03
2018-01-11T01:32:39.441Z,24.77
2018-01-11T01:35:09.780Z,28.00
2018-01-11T01:37:40.839Z,26.00
2018-01-11T01:40:11.750Z,24.50
2018-01-11T01:42:43.041Z,24.33
2018-01-11T01:45:13.818Z,24.53
2018-01-11T01:47:44.942Z,24.10
2018-01-11T01:50:15.277Z,23.53
2018-01-11T01:52:47.069Z,23.10
2018-01-11T01:55:17.397Z,24.37
2018-01-11T01:57:48.043Z,24.00
2018-01-11T02:00:18.429Z,25.43
2018-01-11T02:02:48.844Z,23.83
2018-01-11T02:05:20.202Z,24.53
2018-01-11T02:07:50.817Z,24.90
2018-01-11T02:10:21.478Z,26.37
2018-01-11T02:12:52.088Z,24.17
2018-01-11T02:15:23.221Z,24.73
2018-01-11T02:17:54.097Z,25.93
2018-01-11T02:20:25.282Z,24.20
2018-01-11T02:22:55.746Z,25.03
2018-01-11T02:25:27.109Z,23.13
2018-01-11T02:27:57.465Z,23.93
2018-01-11T02:30:28.833Z,23.80
2018-01-11T02:33:00.136Z,24.20
2018-01-11T02:35:30.760Z,25.47
2018-01-11T02:38:02.047Z,24.67
2018-01-11T02:40:33.262Z,23.57
2018-01-11T02:43:04.120Z,24.27
2018-01-11T02:45:34.935Z,24.83
2018-01-11T02:48:06.185Z,24.60
2018-01-11T02:50:36.926Z,25.87
2018-01-11T02:53:07.858Z,26.27
2018-01-11T02:55:38.877Z,27.37
2018-01-11T03:01:14.176Z,27.33
2018-01-11T03:03:44.957Z,27.20
2018-01-11T03:06:15.549Z,29.67
2018-01-11T03:08:46.376Z,27.07
2018-01-11T03:11:19.508Z,29.63
2018-01-11T03:13:49.969Z,28.77
2018-01-11T03:16:20.373Z,28.97
2018-01-11T03:18:51.360Z,30.23
2018-01-11T03:21:22.579Z,31.73
2018-01-11T03:23:53.171Z,28.83
2018-01-11T03:26:23.524Z,29.50
2018-01-11T03:28:53.842Z,28.53
2018-01-11T03:31:24.446Z,28.33
2018-01-11T03:33:54.885Z,29.43
2018-01-11T03:36:25.357Z,30.37
2018-01-11T03:38:55.976Z,29.87
2018-01-11T03:41:26.569Z,30.40
2018-01-11T03:43:57.850Z,30.37
2018-01-11T03:46:28.705Z,41.90
2018-01-11T03:48:59.218Z,34.27
2018-01-11T03:51:29.770Z,33.83
2018-01-11T03:54:00.950Z,35.23
2018-01-11T03:56:31.523Z,36.73
2018-01-11T03:59:02.051Z,38.03
2018-01-11T04:01:32.890Z,34.67
2018-01-11T04:04:03.226Z,35.20
2018-01-11T04:06:33.533Z,35.13
2018-01-11T04:09:04.700Z,39.67
2018-01-11T04:11:36.356Z,38.80
2018-01-11T04:14:07.546Z,36.80
2018-01-11T04:16:38.654Z,36.33
2018-01-11T04:19:09.857Z,40.03
2018-01-11T04:21:40.880Z,37.20
2018-01-11T04:24:12.304Z,38.80
2018-01-11T04:26:42.872Z,38.17
2018-01-11T04:29:13.426Z,34.50
2018-01-11T04:31:45.572Z,35.60
2018-01-11T04:34:16.256Z,40.13
2018-01-11T04:36:46.794Z,37.50
2018-01-11T04:39:17.696Z,39.50
2018-01-11T04:41:49.329Z,43.47
2018-01-11T04:44:22.248Z,39.93
2018-01-11T04:46:53.648Z,39.77
2018-01-11T04:49:24.177Z,36.67
2018-01-11T04:51:54.978Z,37.77
2018-01-11T04:54:25.876Z,36.97
2018-01-11T04:56:56.531Z,41.23
2018-01-11T04:59:27.504Z,44.00
2018-01-11T05:01:58.498Z,39.67
2018-01-11T05:04:29.148Z,37.23
2018-01-11T05:06:59.916Z,37.20
2018-01-11T05:09:30.493Z,35.60
2018-01-11T05:12:01.351Z,37.50
2018-01-11T05:14:32.116Z,34.90
2018-01-11T05:17:04.697Z,34.87
2018-01-11T05:19:35.639Z,38.37
2018-01-11T05:22:08.899Z,34.93
2018-01-11T05:24:40.295Z,35.90
2018-01-11T05:27:10.972Z,39.90
2018-01-11T05:29:41.660Z,44.33
2018-01-11T05:32:12.299Z,39.87
2018-01-11T05:34:46.395Z,37.70
2018-01-11T05:37:17.735Z,36.97
2018-01-11T05:39:52.196Z,38.80
2018-01-11T05:42:25.009Z,36.70
2018-01-11T05:44:57.393Z,33.90
2018-01-11T05:47:32.635Z,34.10
2018-01-11T05:50:03.328Z,34.30
2018-01-11T05:52:33.901Z,33.23
2018-01-11T05:55:05.713Z,31.30
2018-01-11T05:57:36.554Z,32.73
2018-01-11T06:00:07.327Z,38.00
2018-01-11T06:02:38.395Z,35.20
2018-01-11T06:05:09.006Z,35.50
2018-01-11T06:07:42.119Z,32.20
2018-01-11T06:10:12.715Z,32.47
2018-01-11T06:12:43.463Z,36.30
2018-01-11T06:15:17.820Z,74.53
2018-01-11T06:17:48.648Z,37.40
2018-01-11T06:20:23.722Z,34.13
2018-01-11T06:22:54.280Z,37.50
2018-01-11T06:25:24.837Z,36.57
2018-01-11T06:27:56.693Z,31.40
2018-01-11T06:30:27.471Z,31.73
2018-01-11T06:32:58.161Z,34.43
2018-01-11T06:35:28.800Z,33.63
2018-01-11T06:37:59.440Z,29.63
2018-01-11T06:40:30.061Z,32.43
2018-01-11T06:43:01.134Z,33.90
2018-01-11T06:45:31.801Z,44.10
2018-01-11T06:48:03.092Z,44.10
2018-01-11T06:50:34.876Z,48.97
2018-01-11T06:53:05.510Z,47.92
2018-01-11T06:55:36.065Z,45.47
2018-01-11T06:58:07.199Z,49.25
2018-01-11T07:00:38.933Z,44.30
2018-01-11T07:03:09.627Z,44.20
2018-01-11T07:05:40.616Z,46.80
2018-01-11T07:08:13.096Z,43.50
2018-01-11T07:10:44.504Z,41.70
2018-01-11T07:13:20.393Z,42.33
2018-01-11T07:15:51.658Z,45.22
2018-01-11T07:18:22.304Z,43.90
2018-01-11T07:20:52.839Z,44.87
2018-01-11T07:23:23.380Z,47.00
2018-01-11T07:25:54.557Z,42.77
2018-01-11T07:28:25.179Z,42.73
2018-01-11T07:30:55.707Z,48.03
2018-01-11T07:34:42.449Z,47.60
2018-01-11T07:37:13.082Z,39.90
2018-01-11T07:39:43.733Z,37.83
2018-01-11T07:42:14.239Z,37.97
2018-01-11T07:44:45.437Z,38.37
2018-01-11T07:47:17.407Z,41.58
2018-01-11T07:49:48.140Z,41.87
2018-01-11T07:52:19.074Z,39.22
2018-01-11T07:54:51.112Z,40.63
2018-01-11T07:57:22.014Z,44.90
2018-01-11T08:00:14.325Z,44.37
2018-01-11T08:03:04.364Z,44.17
2018-01-11T08:08:38.143Z,45.35
2018-01-11T08:11:16.952Z,47.83
2018-01-11T08:13:47.915Z,46.80
2018-01-11T08:16:26.286Z,46.43
2018-01-11T08:18:57.868Z,48.33
2018-01-11T08:21:28.760Z,48.20
2018-01-11T08:23:59.493Z,44.47
2018-01-11T08:26:30.107Z,50.30
2018-01-11T08:29:01.609Z,44.70
2018-01-11T08:31:37.367Z,52.20
2018-01-11T08:34:47.286Z,45.57
2018-01-11T08:37:20.539Z,50.97
2018-01-11T08:39:59.356Z,46.10
2018-01-11T08:42:30.905Z,49.10
2018-01-11T08:45:01.531Z,49.83
2018-01-11T08:47:32.443Z,48.47
2018-01-11T08:50:06.402Z,45.97
2018-01-11T08:52:43.526Z,47.53
2018-01-11T08:55:15.836Z,48.37
2018-01-11T08:57:46.676Z,51.17
2018-01-11T09:00:20.659Z,47.80
2018-01-11T09:02:51.409Z,48.27
2018-01-11T09:05:24.191Z,47.43
2018-01-11T09:07:55.023Z,45.20
2018-01-11T09:10:25.664Z,48.77
2018-01-11T09:12:56.646Z,45.27
2018-01-11T09:15:27.224Z,47.30
2018-01-11T09:17:57.819Z,44.20
2018-01-11T09:20:28.369Z,45.73
2018-01-11T09:23:00.430Z,44.97
2018-01-11T09:25:31.825Z,44.10
2018-01-11T09:28:02.387Z,41.13
2018-01-11T09:30:34.152Z,41.40
2018-01-11T09:33:05.267Z,43.77
2018-01-11T09:35:35.829Z,41.27
2018-01-11T09:38:08.068Z,43.00
2018-01-11T09:40:38.741Z,41.97
2018-01-11T09:43:10.908Z,40.20
2018-01-11T09:45:43.325Z,43.53
2018-01-11T09:48:14.209Z,43.13
2018-01-11T09:50:46.045Z,40.80
2018-01-11T09:53:18.666Z,41.93
2018-01-11T09:55:49.236Z,41.90
2018-01-11T09:58:20.303Z,38.73
2018-01-11T10:00:50.788Z,40.83
2018-01-11T10:03:21.272Z,39.47
2018-01-11T10:05:53.005Z,43.83
2018-01-11T10:08:23.545Z,39.93
2018-01-11T10:10:54.889Z,39.97
2018-01-11T10:13:25.627Z,40.53
2018-01-11T10:15:57.121Z,43.37
2018-01-11T10:18:27.707Z,43.60
2018-01-11T10:20:59.304Z,42.70
2018-01-11T10:23:29.762Z,41.47
2018-01-11T10:26:00.242Z,39.47
2018-01-11T10:28:31.392Z,42.47
2018-01-11T10:31:01.915Z,42.53
2018-01-11T10:33:32.375Z,41.13
2018-01-11T10:36:02.845Z,41.23
2018-01-11T10:38:34.822Z,40.83
2018-01-11T10:41:05.313Z,41.23
2018-01-11T10:43:35.916Z,36.63
2018-01-11T10:46:06.641Z,39.27
2018-01-11T10:48:37.123Z,38.67
2018-01-11T10:51:08.563Z,38.80
2018-01-11T10:53:39.052Z,39.10
2018-01-11T10:56:09.658Z,36.20
2018-01-11T10:58:40.469Z,33.97
2018-01-11T11:01:15.091Z,31.83
2018-01-11T11:03:45.600Z,28.77
2018-01-11T11:06:16.133Z,30.57
2018-01-11T11:08:47.430Z,32.17
2018-01-11T11:11:17.878Z,31.57
2018-01-11T11:13:48.378Z,30.53
2018-01-11T11:16:19.277Z,29.57
2018-01-11T11:18:50.529Z,28.37
2018-01-11T11:21:21.028Z,29.90
2018-01-11T11:23:51.867Z,28.10
2018-01-11T11:26:22.444Z,28.17
2018-01-11T11:28:52.975Z,28.23
2018-01-11T11:31:23.765Z,29.07
2018-01-11T11:33:55.171Z,26.40
2018-01-11T11:36:25.789Z,25.83
2018-01-11T11:38:56.532Z,26.13
2018-01-11T11:41:27.108Z,27.47
2018-01-11T11:43:58.713Z,25.47
2018-01-11T11:46:29.288Z,25.53
2018-01-11T11:49:00.690Z,25.00
2018-01-11T11:51:31.645Z,26.00
2018-01-11T11:54:02.200Z,26.30
2018-01-11T11:56:33.937Z,26.53
2018-01-11T11:59:04.571Z,24.87
2018-01-11T12:01:35.128Z,26.27
2018-01-11T12:04:05.916Z,24.77
2018-01-11T12:06:36.633Z,26.27
2018-01-11T12:09:07.204Z,25.03
2018-01-11T12:11:37.875Z,26.80
2018-01-11T12:14:08.746Z,22.87
2018-01-11T12:16:39.419Z,24.20
2018-01-11T12:19:11.109Z,23.40
2018-01-11T12:21:41.680Z,23.93
2018-01-11T12:24:12.240Z,24.57
2018-01-11T12:26:43.196Z,22.03
2018-01-11T12:29:13.776Z,20.87
2018-01-11T12:31:44.462Z,30.43
2018-01-11T12:34:15.431Z,20.80
2018-01-11T12:36:46.085Z,21.30
2018-01-11T12:39:17.429Z,22.60
2018-01-11T12:41:48.293Z,22.23
2018-01-11T12:44:19.771Z,21.00
2018-01-11T12:46:50.344Z,20.87
2018-01-11T12:49:21.104Z,22.20
2018-01-11T12:51:52.336Z,19.73
2018-01-11T12:54:23.596Z,21.90
2018-01-11T12:56:54.320Z,21.13
2018-01-11T12:59:25.597Z,22.03
2018-01-11T13:01:56.130Z,21.33
2018-01-11T13:04:26.868Z,21.93
2018-01-11T13:06:57.489Z,23.70
2018-01-11T13:09:28.120Z,23.00
2018-01-11T13:11:58.995Z,23.07
2018-01-11T13:14:29.576Z,24.07
2018-01-11T13:17:00.182Z,24.37
2018-01-11T13:19:30.758Z,25.33
2018-01-11T13:22:01.759Z,25.70
2018-01-11T13:24:32.375Z,27.10
2018-01-11T13:27:03.655Z,28.90
2018-01-11T13:29:34.585Z,29.33
2018-01-11T13:32:05.118Z,29.73
2018-01-11T13:34:35.646Z,30.93
2018-01-11T13:37:06.471Z,30.93
2018-01-11T13:39:37.209Z,30.63
2018-01-11T13:42:07.960Z,31.80
2018-01-11T13:44:38.859Z,30.13
2018-01-11T13:47:10.165Z,32.93
2018-01-11T13:49:40.834Z,31.53
2018-01-11T13:52:12.828Z,30.80
2018-01-11T13:54:43.563Z,30.63
2018-01-11T13:57:14.174Z,29.13
2018-01-11T13:59:44.772Z,28.93
2018-01-11T14:02:16.140Z,30.40
2018-01-11T14:04:46.807Z,31.10
2018-01-11T14:07:17.712Z,31.90
2018-01-11T14:09:48.267Z,28.77
2018-01-11T14:12:22.589Z,29.10
2018-01-11T14:14:53.908Z,29.43
2018-01-11T14:17:26.026Z,30.97
2018-01-11T14:19:58.364Z,32.80
2018-01-11T14:22:29.129Z,31.30
2018-01-11T14:24:59.804Z,33.10
2018-01-11T14:27:31.741Z,34.13
2018-01-11T14:30:02.578Z,36.80
2018-01-11T14:32:33.206Z,38.43
2018-01-11T14:35:06.307Z,36.53
2018-01-11T14:37:36.909Z,35.00
2018-01-11T14:40:07.885Z,37.50
2018-01-11T14:42:38.901Z,38.70
2018-01-11T14:45:09.741Z,39.67
2018-01-11T14:47:40.390Z,37.77
2018-01-11T14:50:11.826Z,41.03
2018-01-11T14:52:44.058Z,41.50
2018-01-11T14:55:14.621Z,38.17
2018-01-11T14:57:46.066Z,37.97
2018-01-11T15:00:18.326Z,50.10
2018-01-11T15:02:49.690Z,55.10
2018-01-11T15:05:20.293Z,69.03
2018-01-11T15:07:51.087Z,48.70
2018-01-11T15:10:21.941Z,47.27
2018-01-11T15:12:53.075Z,42.70
2018-01-11T15:15:23.740Z,36.90
2018-01-11T15:17:54.952Z,34.67
2018-01-11T15:20:25.526Z,40.20
2018-01-11T15:22:56.099Z,36.03
2018-01-11T15:25:27.008Z,35.67
2018-01-11T15:27:57.607Z,37.10
2018-01-11T15:30:29.236Z,38.97
2018-01-11T15:33:00.138Z,38.30
2018-01-11T15:35:30.733Z,36.27
2018-01-11T15:38:01.672Z,36.73
2018-01-11T15:40:32.316Z,37.83
2018-01-11T15:43:03.705Z,40.97
2018-01-11T15:45:40.246Z,39.03
2018-01-11T15:48:15.876Z,42.97
2018-01-11T15:50:47.642Z,41.90
2018-01-11T15:53:19.270Z,39.13
2018-01-11T15:55:50.750Z,38.23
2018-01-11T15:58:22.241Z,47.47
2018-01-11T16:00:52.993Z,51.70
2018-01-11T16:03:23.583Z,50.50
2018-01-11T16:05:54.378Z,45.67
2018-01-11T16:08:25.117Z,45.83
2018-01-11T16:10:56.469Z,43.93
2018-01-11T16:13:27.807Z,42.37
2018-01-11T16:15:59.636Z,39.53
2018-01-11T16:18:30.310Z,41.40
2018-01-11T16:21:02.287Z,43.83
2018-01-11T16:23:33.137Z,41.30
2018-01-11T16:26:03.926Z,45.33
2018-01-11T16:28:36.263Z,47.93
2018-01-11T16:31:07.448Z,42.83
2018-01-11T16:33:38.948Z,49.80
2018-01-11T16:36:09.742Z,46.63
2018-01-11T16:38:40.638Z,48.03
2018-01-11T16:41:12.250Z,46.10
2018-01-11T16:43:43.878Z,42.83
2018-01-11T16:46:14.660Z,44.33
2018-01-11T16:48:45.816Z,39.80
2018-01-11T16:51:16.577Z,45.90
2018-01-11T16:53:48.264Z,47.40
2018-01-11T16:56:19.107Z,47.60
2018-01-11T16:58:49.892Z,45.50
2018-01-11T17:01:21.472Z,42.07
2018-01-11T17:03:53.109Z,51.70
2018-01-11T17:06:23.949Z,42.47
2018-01-11T17:08:54.783Z,42.50
2018-01-11T17:11:26.550Z,48.07
2018-01-11T17:13:57.208Z,48.77
2018-01-11T17:16:27.969Z,42.63
2018-01-11T17:18:58.861Z,42.07
2018-01-11T17:21:36.083Z,42.37
2018-01-11T17:24:12.655Z,50.10
2018-01-11T17:26:44.225Z,52.13
2018-01-11T17:29:15.845Z,42.43
2018-01-11T17:31:46.725Z,40.13
2018-01-11T17:34:18.521Z,41.23
2018-01-11T17:36:49.401Z,49.17
2018-01-11T17:39:20.263Z,41.50
2018-01-11T17:41:51.854Z,48.87
2018-01-11T17:44:22.895Z,39.07
2018-01-11T17:46:53.887Z,45.17
2018-01-11T17:49:25.904Z,38.53
2018-01-11T17:51:56.737Z,46.87
2018-01-11T17:54:27.648Z,42.03
2018-01-11T17:56:59.327Z,47.23
2018-01-11T17:59:30.468Z,48.30
2018-01-11T18:02:01.463Z,42.80
2018-01-11T18:04:32.778Z,48.83
2018-01-11T18:07:03.699Z,48.83
2018-01-11T18:09:35.379Z,43.47
2018-01-11T18:12:07.316Z,51.33
2018-01-11T18:14:38.711Z,47.33
2018-01-11T18:17:10.728Z,42.33
2018-01-11T18:19:42.454Z,50.23
2018-01-11T18:22:13.485Z,48.80
2018-01-11T18:24:44.816Z,46.70
2018-01-11T18:27:16.928Z,39.87
2018-01-11T18:29:48.142Z,47.00
2018-01-11T18:32:19.452Z,47.17
2018-01-11T18:34:50.445Z,43.20
2018-01-11T18:37:21.569Z,38.07
2018-01-11T18:39:52.717Z,41.77
2018-01-11T18:42:24.077Z,40.73
2018-01-11T18:44:55.893Z,34.37
2018-01-11T18:47:26.856Z,33.00
2018-01-11T18:49:58.050Z,37.70
2018-01-11T18:52:33.182Z,34.47
2018-01-11T18:55:04.812Z,35.27
2018-01-11T18:57:36.730Z,33.30
2018-01-11T19:00:08.087Z,36.93
2018-01-11T19:02:40.600Z,36.10
2018-01-11T19:05:12.561Z,32.77
2018-01-11T19:07:44.029Z,34.83
2018-01-11T19:10:15.193Z,32.17
2018-01-11T19:12:46.979Z,34.67
2018-01-11T19:15:18.300Z,29.83
2018-01-11T19:17:50.727Z,30.23
2018-01-11T19:20:23.611Z,29.70
2018-01-11T19:22:54.827Z,30.30
2018-01-11T19:25:26.426Z,30.33
2018-01-11T19:27:58.584Z,27.27
2018-01-11T19:30:32.679Z,27.57
2018-01-11T19:33:05.849Z,26.20
2018-01-11T19:35:37.646Z,25.73
2018-01-11T19:38:10.063Z,26.70
2018-01-11T19:40:42.794Z,25.83
2018-01-11T19:43:13.738Z,26.57
2018-01-11T19:45:44.889Z,28.83
2018-01-11T19:48:15.922Z,29.87
2018-01-11T19:50:48.122Z,28.90
2018-01-11T19:53:20.514Z,30.47
2018-01-11T19:55:52.018Z,34.07
2018-01-11T19:58:23.508Z,34.13
2018-01-11T20:00:55.568Z,33.57
2018-01-11T20:03:26.751Z,35.30
2018-01-11T20:05:58.220Z,34.47
2018-01-11T20:08:29.981Z,37.87
2018-01-11T20:11:00.904Z,39.33
2018-01-11T20:13:31.771Z,34.27
2018-01-11T20:16:04.628Z,31.13
2018-01-11T20:18:36.849Z,37.43
2018-01-11T20:21:07.816Z,40.80
2018-01-11T20:23:39.484Z,39.90
2018-01-11T20:26:10.876Z,40.03
2018-01-11T20:28:42.955Z,43.27
2018-01-11T20:31:14.560Z,42.40
2018-01-11T20:33:45.479Z,44.57
2018-01-11T20:36:16.892Z,40.83
2018-01-11T20:38:48.304Z,42.83
2018-01-11T20:41:20.029Z,41.30
2018-01-11T20:43:51.046Z,41.07
2018-01-11T20:46:22.164Z,44.37
2018-01-11T20:48:53.021Z,43.47
2018-01-11T20:51:23.936Z,44.67
2018-01-11T20:53:55.772Z,43.97
2018-01-11T20:56:26.536Z,38.43
2018-01-11T20:58:58.171Z,47.40
2018-01-11T21:01:28.980Z,45.77
2018-01-11T21:03:59.802Z,42.87
2018-01-11T21:06:31.433Z,49.70
2018-01-11T21:09:02.294Z,50.37
2018-01-11T21:11:34.247Z,50.97
2018-01-11T21:14:05.407Z,56.23
2018-01-11T21:16:37.918Z,52.97
2018-01-11T21:19:08.927Z,53.50
2018-01-11T21:21:39.876Z,47.47
2018-01-11T21:24:11.202Z,52.67
2018-01-11T21:26:42.164Z,51.70
2018-01-11T21:29:13.837Z,46.80
2018-01-11T21:31:45.465Z,53.80
2018-01-11T21:34:16.362Z,52.00
2018-01-11T21:36:47.197Z,50.40
2018-01-11T21:39:18.382Z,52.57
2018-01-11T21:41:49.183Z,50.10
2018-01-11T21:44:20.193Z,54.37
2018-01-11T21:46:51.365Z,47.63
2018-01-11T21:49:23.364Z,51.97
2018-01-11T21:51:56.910Z,52.43
2018-01-11T21:54:30.082Z,50.23
2018-01-11T21:57:01.303Z,49.63
2018-01-11T21:59:32.332Z,49.00
2018-01-11T22:02:03.857Z,47.97
2018-01-11T22:04:35.586Z,47.97
2018-01-11T22:07:06.863Z,46.43
2018-01-11T22:09:37.959Z,48.40
2018-01-11T22:12:08.899Z,47.20
2018-01-11T22:14:40.547Z,48.07
2018-01-11T22:17:11.317Z,41.77
2018-01-11T22:19:42.537Z,46.23
2018-01-11T22:22:14.002Z,44.93
2018-01-11T22:24:44.974Z,45.70
2018-01-11T22:27:15.876Z,48.23
2018-01-11T22:29:47.051Z,45.93
2018-01-11T22:32:19.539Z,42.57
2018-01-11T22:34:50.336Z,44.47
2018-01-11T22:37:21.403Z,43.17
2018-01-11T22:39:52.123Z,40.73
2018-01-11T22:42:22.934Z,39.90
2018-01-11T22:44:54.673Z,40.53
2018-01-11T22:47:25.481Z,40.67
2018-01-11T22:49:56.288Z,39.47
2018-01-11T22:52:27.523Z,40.17
2018-01-11T22:54:58.917Z,35.73
2018-01-11T22:57:29.889Z,35.40
2018-01-11T23:00:01.245Z,33.53
2018-01-11T23:02:32.858Z,34.73
2018-01-11T23:05:03.761Z,35.67
2018-01-11T23:07:35.053Z,33.27
2018-01-11T23:10:06.052Z,32.73
2018-01-11T23:12:37.063Z,31.67
2018-01-11T23:15:08.531Z,33.83
2018-01-11T23:17:39.545Z,29.77
2018-01-11T23:20:10.830Z,31.70
2018-01-11T23:22:41.629Z,29.63
2018-01-11T23:25:13.486Z,30.43
2018-01-11T23:27:44.632Z,29.70
2018-01-11T23:30:15.668Z,29.03
2018-01-11T23:32:46.544Z,27.60
2018-01-11T23:35:18.677Z,30.47
2018-01-11T23:37:49.580Z,28.83
2018-01-11T23:40:20.627Z,27.70
2018-01-11T23:42:52.002Z,27.70
2018-01-11T23:45:22.964Z,27.40
